高雄國際航空站 - 高雄掃描席

METAR RCKH 251030Z 32004KT 9999 FEW015 SCT040 BKN110 29/25 Q1006 NOSIG RMK A2973=

站台狀態:Online
最後更新:2022-09-25 19:00:01